createdAt,value
2023-04-14T00:02:08.056Z,3.70
2023-04-14T00:04:35.034Z,3.70
2023-04-14T00:07:02.146Z,3.70
2023-04-14T00:09:28.882Z,3.70
2023-04-14T00:11:57.708Z,3.70
2023-04-14T00:14:24.473Z,3.70
2023-04-14T00:16:51.554Z,3.70
2023-04-14T00:19:18.293Z,3.70
2023-04-14T00:21:45.015Z,3.70
2023-04-14T00:24:11.918Z,3.70
2023-04-14T00:26:38.930Z,3.70
2023-04-14T00:29:05.724Z,3.70
2023-04-14T00:31:32.838Z,3.60
2023-04-14T00:33:59.595Z,3.60
2023-04-14T00:36:27.190Z,3.60
2023-04-14T00:38:53.900Z,3.60
2023-04-14T00:41:20.873Z,3.60
2023-04-14T00:43:47.618Z,3.60
2023-04-14T00:46:17.568Z,3.60
2023-04-14T00:48:44.521Z,3.60
2023-04-14T00:51:11.792Z,3.60
2023-04-14T00:53:39.824Z,3.60
2023-04-14T00:56:07.190Z,3.60
2023-04-14T00:58:34.697Z,3.60
2023-04-14T01:01:01.719Z,3.70
2023-04-14T01:03:28.547Z,3.70
2023-04-14T01:05:55.571Z,3.70
2023-04-14T01:08:22.928Z,3.70
2023-04-14T01:11:09.980Z,3.70
2023-04-14T01:14:01.295Z,3.80
2023-04-14T01:16:31.903Z,3.80
2023-04-14T01:19:10.766Z,3.80
2023-04-14T01:21:42.639Z,3.80
2023-04-14T01:24:36.931Z,3.80
2023-04-14T01:27:24.450Z,3.80
2023-04-14T01:29:59.992Z,3.80
2023-04-14T01:32:30.328Z,3.80
2023-04-14T01:35:00.638Z,3.70
2023-04-14T01:37:30.674Z,3.80
2023-04-14T01:40:03.235Z,3.80
2023-04-14T01:42:33.906Z,3.80
2023-04-14T01:45:06.630Z,3.80
2023-04-14T01:47:34.669Z,3.80
2023-04-14T01:50:02.758Z,3.80
2023-04-14T01:52:31.147Z,3.80
2023-04-14T01:55:00.415Z,3.80
2023-04-14T01:57:28.649Z,3.80
2023-04-14T01:59:58.846Z,3.80
2023-04-14T02:02:27.337Z,3.90
2023-04-14T02:04:57.723Z,3.90
2023-04-14T02:07:26.834Z,4.00
2023-04-14T02:09:56.137Z,4.00
2023-04-14T02:12:24.608Z,4.10
2023-04-14T02:14:53.565Z,4.10
2023-04-14T02:17:21.564Z,4.10
2023-04-14T02:19:49.541Z,4.10
2023-04-14T02:22:16.555Z,4.10
2023-04-14T02:24:43.499Z,4.10
2023-04-14T02:27:38.629Z,4.10
2023-04-14T02:30:13.230Z,4.10
2023-04-14T02:32:45.415Z,4.10
2023-04-14T02:35:16.744Z,4.10
2023-04-14T02:38:44.073Z,4.10
2023-04-14T02:41:22.378Z,4.00
2023-04-14T02:43:55.907Z,4.00
2023-04-14T02:46:26.073Z,4.00
2023-04-14T02:48:55.519Z,4.00
2023-04-14T02:51:24.146Z,4.10
2023-04-14T02:53:51.537Z,4.10
2023-04-14T02:56:18.841Z,4.10
2023-04-14T02:58:46.906Z,4.10
2023-04-14T03:01:15.908Z,4.10
2023-04-14T03:03:43.249Z,4.10
2023-04-14T03:06:11.959Z,4.10
2023-04-14T03:08:40.121Z,4.20
2023-04-14T03:11:07.269Z,4.30
2023-04-14T03:13:34.875Z,4.20
2023-04-14T03:16:03.674Z,4.20
2023-04-14T03:18:32.305Z,4.10
2023-04-14T03:21:02.093Z,4.00
2023-04-14T03:23:29.605Z,3.90
2023-04-14T03:25:58.257Z,3.90
2023-04-14T03:28:28.480Z,3.90
2023-04-14T03:30:56.845Z,3.90
2023-04-14T03:33:29.297Z,4.00
2023-04-14T03:35:58.635Z,4.00
2023-04-14T03:38:29.581Z,4.00
2023-04-14T03:40:59.952Z,4.10
2023-04-14T03:43:31.740Z,4.10
2023-04-14T03:45:58.730Z,4.10
2023-04-14T03:48:27.480Z,4.10
2023-04-14T03:50:56.653Z,4.10
2023-04-14T03:53:24.310Z,4.20
2023-04-14T03:55:52.797Z,4.20
2023-04-14T03:58:21.560Z,4.10
2023-04-14T04:00:49.175Z,4.10
2023-04-14T04:03:16.505Z,4.10
2023-04-14T04:05:44.879Z,4.10
2023-04-14T04:08:12.899Z,4.00
2023-04-14T04:10:40.319Z,4.00
2023-04-14T04:13:15.892Z,4.00
2023-04-14T04:15:43.887Z,4.00
2023-04-14T04:18:15.660Z,4.00
2023-04-14T04:20:43.551Z,4.00
2023-04-14T04:23:11.549Z,4.00
2023-04-14T04:25:40.809Z,4.00
2023-04-14T04:28:07.767Z,4.00
2023-04-14T04:30:40.218Z,4.00
2023-04-14T04:33:07.741Z,4.00
2023-04-14T04:35:36.354Z,4.00
2023-04-14T04:38:03.896Z,4.00
2023-04-14T04:40:38.867Z,4.00
2023-04-14T04:43:06.063Z,4.00
2023-04-14T04:46:22.963Z,4.10
2023-04-14T04:48:55.771Z,4.10
2023-04-14T04:51:22.447Z,4.10
2023-04-14T04:53:49.344Z,4.10
2023-04-14T04:56:16.571Z,4.10
2023-04-14T04:58:43.723Z,4.10
2023-04-14T05:01:11.375Z,4.20
2023-04-14T05:03:38.947Z,4.20
2023-04-14T05:06:06.152Z,4.20
2023-04-14T05:08:32.826Z,4.20
2023-04-14T05:10:59.817Z,4.30
2023-04-14T05:13:26.486Z,4.30
2023-04-14T05:16:02.746Z,4.40
2023-04-14T05:18:29.500Z,4.40
2023-04-14T05:20:56.130Z,4.50
2023-04-14T05:23:23.011Z,4.50
2023-04-14T05:25:49.737Z,4.60
2023-04-14T05:28:16.976Z,4.60
2023-04-14T05:30:43.644Z,4.70
2023-04-14T05:33:11.213Z,4.80
2023-04-14T05:35:38.155Z,4.80
2023-04-14T05:38:05.114Z,4.90
2023-04-14T05:40:35.056Z,5.00
2023-04-14T05:43:01.988Z,5.00
2023-04-14T05:45:28.916Z,5.10
2023-04-14T05:47:55.895Z,5.10
2023-04-14T05:50:23.352Z,5.20
2023-04-14T05:52:51.198Z,5.20
2023-04-14T05:55:18.991Z,5.30
2023-04-14T05:57:46.359Z,5.30
2023-04-14T06:00:14.009Z,5.40
2023-04-14T06:02:41.787Z,5.50
2023-04-14T06:05:09.280Z,5.60
2023-04-14T06:07:37.118Z,5.70
2023-04-14T06:10:03.912Z,5.80
2023-04-14T06:12:30.874Z,5.80
2023-04-14T06:14:57.523Z,5.90
2023-04-14T06:17:24.463Z,6.00
2023-04-14T06:19:51.278Z,6.20
2023-04-14T06:22:20.055Z,6.30
2023-04-14T06:24:47.252Z,6.40
2023-04-14T06:27:14.619Z,6.50
2023-04-14T06:29:41.876Z,6.70
2023-04-14T06:32:08.641Z,6.70
2023-04-14T06:34:35.447Z,6.80
2023-04-14T06:37:02.431Z,6.80
2023-04-14T06:39:29.313Z,6.90
2023-04-14T06:41:57.010Z,6.90
2023-04-14T06:44:24.010Z,7.20
2023-04-14T06:46:50.844Z,7.30
2023-04-14T06:49:19.849Z,7.40
2023-04-14T06:51:47.920Z,7.70
2023-04-14T06:54:14.836Z,7.80
2023-04-14T06:56:41.550Z,7.80
2023-04-14T06:59:08.338Z,7.70
2023-04-14T07:01:35.376Z,7.80
2023-04-14T07:04:06.835Z,7.80
2023-04-14T07:06:34.476Z,7.90
2023-04-14T07:09:01.361Z,8.00
2023-04-14T07:11:29.793Z,8.20
2023-04-14T07:13:56.966Z,8.20
2023-04-14T07:16:24.045Z,8.20
2023-04-14T07:18:50.889Z,8.20
2023-04-14T07:21:17.823Z,8.20
2023-04-14T07:23:44.506Z,8.30
2023-04-14T07:26:12.065Z,8.40
2023-04-14T07:28:38.834Z,8.60
2023-04-14T07:31:09.674Z,8.80
2023-04-14T07:33:36.591Z,8.90
2023-04-14T07:36:08.012Z,9.10
2023-04-14T07:38:34.940Z,9.20
2023-04-14T07:41:06.857Z,9.30
2023-04-14T07:43:37.512Z,9.30
2023-04-14T07:46:06.678Z,9.40
2023-04-14T07:48:35.856Z,9.60
2023-04-14T07:51:03.188Z,9.70
2023-04-14T07:53:30.818Z,9.80
2023-04-14T07:55:58.485Z,9.80
2023-04-14T07:58:26.677Z,9.80
2023-04-14T08:00:54.894Z,9.90
2023-04-14T08:03:22.188Z,10.10
2023-04-14T08:05:49.353Z,10.10
2023-04-14T08:08:16.121Z,10.30
2023-04-14T08:10:42.902Z,10.30
2023-04-14T08:13:09.958Z,10.30
2023-04-14T08:15:36.796Z,10.40
2023-04-14T08:18:03.978Z,10.20
2023-04-14T08:20:30.904Z,10.20
2023-04-14T08:22:58.015Z,10.10
2023-04-14T08:25:24.792Z,10.00
2023-04-14T08:27:51.957Z,9.70
2023-04-14T08:30:18.726Z,9.30
2023-04-14T08:32:45.575Z,9.10
2023-04-14T08:35:36.048Z,9.20
2023-04-14T08:38:01.542Z,9.20
2023-04-14T08:40:39.745Z,9.20
2023-04-14T08:43:07.346Z,9.40
2023-04-14T08:45:34.595Z,9.60
2023-04-14T08:48:03.524Z,9.70
2023-04-14T08:50:37.425Z,9.90
2023-04-14T08:53:08.831Z,10.10
2023-04-14T08:55:39.150Z,10.20
2023-04-14T08:58:08.242Z,10.10
2023-04-14T09:00:44.367Z,10.10
2023-04-14T09:04:12.379Z,10.20
2023-04-14T09:06:40.669Z,10.30
2023-04-14T09:09:07.878Z,10.20
2023-04-14T09:11:34.803Z,10.10
2023-04-14T09:14:02.240Z,10.20
2023-04-14T09:16:29.624Z,10.20
2023-04-14T09:18:59.500Z,10.10
2023-04-14T09:21:52.833Z,10.10
2023-04-14T09:24:24.975Z,10.20
2023-04-14T09:26:52.101Z,10.30
2023-04-14T09:29:18.864Z,10.40
2023-04-14T09:31:46.958Z,10.50
2023-04-14T09:34:18.406Z,10.60
2023-04-14T09:37:05.382Z,10.80
2023-04-14T09:39:33.108Z,10.80
2023-04-14T09:42:01.578Z,10.80
2023-04-14T09:44:29.431Z,10.80
2023-04-14T09:47:48.183Z,11.00
2023-04-14T09:50:14.986Z,11.20
2023-04-14T09:52:44.667Z,11.20
2023-04-14T09:55:16.448Z,11.20
2023-04-14T09:57:47.617Z,11.20
2023-04-14T10:00:19.298Z,11.10
2023-04-14T10:02:58.242Z,10.90
2023-04-14T10:05:32.970Z,10.60
2023-04-14T10:08:05.291Z,10.40
2023-04-14T10:10:32.798Z,10.20
2023-04-14T10:13:00.568Z,9.90
2023-04-14T10:15:29.134Z,9.80
2023-04-14T10:17:56.510Z,9.80
2023-04-14T10:20:23.455Z,9.70
2023-04-14T10:22:56.515Z,9.90
2023-04-14T10:25:26.396Z,10.00
2023-04-14T10:27:53.608Z,10.10
2023-04-14T10:30:20.540Z,10.20
2023-04-14T10:32:48.230Z,10.30
2023-04-14T10:35:17.514Z,10.30
2023-04-14T10:37:55.114Z,10.50
2023-04-14T10:40:23.281Z,10.50
2023-04-14T10:42:54.922Z,10.70
2023-04-14T10:45:22.111Z,11.00
2023-04-14T10:47:49.974Z,11.30
2023-04-14T10:50:18.294Z,11.50
2023-04-14T10:52:51.886Z,11.80
2023-04-14T10:55:51.727Z,11.80
2023-04-14T10:58:21.543Z,11.70
2023-04-14T11:00:48.751Z,11.80
2023-04-14T11:03:21.060Z,11.50
2023-04-14T11:05:52.349Z,11.10
2023-04-14T11:08:30.178Z,10.50
2023-04-14T11:11:04.752Z,10.20
2023-04-14T11:13:33.142Z,9.90
2023-04-14T11:16:07.801Z,9.50
2023-04-14T11:18:38.663Z,9.20
2023-04-14T11:21:07.401Z,9.30
2023-04-14T11:23:35.775Z,9.70
2023-04-14T11:26:06.071Z,9.80
2023-04-14T11:28:38.277Z,10.00
2023-04-14T11:31:06.690Z,10.10
2023-04-14T11:33:37.112Z,10.10
2023-04-14T11:36:05.772Z,9.90
2023-04-14T11:38:35.805Z,9.50
2023-04-14T11:41:03.808Z,9.10
2023-04-14T11:43:30.850Z,8.70
2023-04-14T11:45:59.377Z,8.60
2023-04-14T11:48:28.720Z,8.50
2023-04-14T11:51:01.483Z,8.30
2023-04-14T11:53:28.308Z,8.40
2023-04-14T11:55:55.304Z,8.60
2023-04-14T11:58:24.439Z,9.00
2023-04-14T12:00:53.636Z,9.30
2023-04-14T12:03:27.842Z,9.60
2023-04-14T12:06:02.226Z,10.00
2023-04-14T12:08:33.039Z,10.30
2023-04-14T12:11:15.187Z,10.50
2023-04-14T12:13:43.684Z,10.80
2023-04-14T12:16:15.288Z,10.90
2023-04-14T12:18:43.142Z,11.00
2023-04-14T12:21:11.856Z,10.90
2023-04-14T12:23:42.460Z,10.90
2023-04-14T12:26:12.923Z,10.80
2023-04-14T12:28:41.574Z,10.50
2023-04-14T12:31:09.488Z,10.40
2023-04-14T12:33:36.686Z,10.20
2023-04-14T12:36:08.445Z,10.20
2023-04-14T12:38:35.435Z,9.90
2023-04-14T12:41:02.829Z,9.80
2023-04-14T12:43:33.966Z,9.70
2023-04-14T12:46:03.682Z,9.50
2023-04-14T12:48:43.958Z,9.40
2023-04-14T12:51:16.593Z,9.50
2023-04-14T12:53:44.891Z,9.60
2023-04-14T12:56:17.616Z,9.90
2023-04-14T12:58:48.793Z,10.30
2023-04-14T13:01:19.117Z,10.60
2023-04-14T13:03:49.581Z,11.20
2023-04-14T13:06:18.205Z,11.60
2023-04-14T13:08:46.527Z,11.60
2023-04-14T13:11:14.308Z,11.40
2023-04-14T13:13:41.842Z,11.30
2023-04-14T13:16:13.789Z,11.20
2023-04-14T13:18:42.534Z,11.60
2023-04-14T13:21:10.489Z,12.20
2023-04-14T13:23:37.219Z,12.80
2023-04-14T13:26:04.240Z,13.10
2023-04-14T13:28:31.721Z,13.50
2023-04-14T13:30:58.464Z,13.30
2023-04-14T13:33:26.835Z,13.00
2023-04-14T13:35:55.783Z,12.60
2023-04-14T13:38:22.922Z,12.10
2023-04-14T13:40:49.853Z,11.50
2023-04-14T13:43:19.173Z,11.10
2023-04-14T13:45:46.907Z,10.60
2023-04-14T13:48:14.835Z,10.00
2023-04-14T13:50:41.727Z,9.70
2023-04-14T13:53:09.247Z,9.50
2023-04-14T13:55:36.286Z,9.50
2023-04-14T13:58:03.501Z,9.60
2023-04-14T14:00:30.602Z,9.80
2023-04-14T14:02:57.811Z,10.20
2023-04-14T14:05:25.142Z,10.60
2023-04-14T14:07:52.192Z,11.10
2023-04-14T14:10:19.344Z,11.50
2023-04-14T14:12:46.240Z,11.90
2023-04-14T14:15:13.202Z,12.00
2023-04-14T14:17:40.692Z,12.40
2023-04-14T14:20:09.258Z,12.50
2023-04-14T14:22:36.519Z,12.40
2023-04-14T14:25:17.834Z,12.40
2023-04-14T14:27:47.026Z,12.50
2023-04-14T14:30:14.192Z,12.10
2023-04-14T14:32:40.892Z,11.60
2023-04-14T14:35:08.419Z,11.10
2023-04-14T14:37:35.381Z,10.70
2023-04-14T14:40:02.380Z,10.60
2023-04-14T14:42:29.033Z,10.70
2023-04-14T14:44:56.070Z,10.60
2023-04-14T14:47:24.657Z,10.30
2023-04-14T14:49:59.520Z,10.20
2023-04-14T14:52:31.631Z,10.20
2023-04-14T14:54:58.495Z,10.10
2023-04-14T14:57:25.908Z,10.20
2023-04-14T14:59:52.864Z,10.30
2023-04-14T15:02:21.055Z,10.30
2023-04-14T15:04:48.223Z,10.20
2023-04-14T15:07:15.305Z,10.10
2023-04-14T15:09:42.075Z,10.10
2023-04-14T15:12:09.051Z,9.90
2023-04-14T15:14:35.872Z,9.80
2023-04-14T15:17:03.048Z,9.80
2023-04-14T15:19:29.799Z,9.70
2023-04-14T15:21:56.568Z,9.50
2023-04-14T15:24:28.297Z,9.30
2023-04-14T15:26:55.465Z,9.00
2023-04-14T15:29:24.991Z,8.90
2023-04-14T15:31:52.139Z,8.90
2023-04-14T15:34:19.090Z,8.90
2023-04-14T15:36:46.048Z,8.90
2023-04-14T15:39:12.732Z,9.00
2023-04-14T15:42:09.774Z,9.10
2023-04-14T15:44:36.412Z,9.10
2023-04-14T15:47:03.333Z,9.20
2023-04-14T15:49:30.241Z,9.20
2023-04-14T15:51:57.761Z,9.20
2023-04-14T15:54:24.617Z,9.30
2023-04-14T15:56:52.535Z,9.30
2023-04-14T15:59:20.033Z,9.40
2023-04-14T16:01:46.824Z,9.50
2023-04-14T16:04:13.576Z,9.60
2023-04-14T16:06:40.599Z,9.60
2023-04-14T16:09:07.608Z,9.70
2023-04-14T16:11:34.853Z,9.70
2023-04-14T16:14:01.663Z,9.60
2023-04-14T16:16:28.807Z,9.70
2023-04-14T16:18:55.557Z,9.70
2023-04-14T16:21:22.492Z,9.70
2023-04-14T16:23:49.178Z,9.50
2023-04-14T16:26:20.350Z,9.50
2023-04-14T16:28:47.023Z,9.40
2023-04-14T16:31:13.761Z,9.50
2023-04-14T16:33:40.547Z,9.40
2023-04-14T16:36:07.966Z,9.40
2023-04-14T16:38:34.731Z,9.40
2023-04-14T16:41:02.693Z,9.30
2023-04-14T16:43:29.529Z,9.20
2023-04-14T16:46:07.104Z,9.20
2023-04-14T16:48:36.972Z,9.00
2023-04-14T16:51:08.701Z,9.00
2023-04-14T16:53:39.234Z,8.90
2023-04-14T16:56:09.489Z,8.90
2023-04-14T16:58:42.802Z,8.70
2023-04-14T17:01:12.968Z,8.60
2023-04-14T17:03:39.949Z,8.60
2023-04-14T17:06:06.934Z,8.50
2023-04-14T17:08:34.429Z,8.30
2023-04-14T17:11:01.313Z,8.20
2023-04-14T17:13:28.871Z,8.10
2023-04-14T17:16:07.683Z,8.00
2023-04-14T17:18:35.767Z,7.90
2023-04-14T17:21:03.106Z,7.80
2023-04-14T17:23:30.033Z,7.80
2023-04-14T17:25:58.736Z,7.80
2023-04-14T17:28:27.074Z,7.80
2023-04-14T17:30:54.102Z,7.70
2023-04-14T17:33:21.993Z,7.70
2023-04-14T17:35:48.833Z,7.60
2023-04-14T17:38:15.817Z,7.50
2023-04-14T17:40:42.812Z,7.50
2023-04-14T17:43:09.499Z,7.50
2023-04-14T17:45:36.229Z,7.40
2023-04-14T17:48:03.721Z,7.40
2023-04-14T17:50:31.052Z,7.30
2023-04-14T17:52:58.628Z,7.30
2023-04-14T17:55:25.883Z,7.20
2023-04-14T17:57:53.752Z,7.20
2023-04-14T18:00:21.153Z,7.10
2023-04-14T18:02:48.048Z,7.00
2023-04-14T18:05:15.367Z,7.00
2023-04-14T18:07:42.338Z,7.00
2023-04-14T18:10:09.669Z,6.90
2023-04-14T18:12:36.595Z,6.90
2023-04-14T18:15:15.362Z,6.80
2023-04-14T18:17:42.801Z,6.80
2023-04-14T18:20:10.891Z,6.80
2023-04-14T18:22:38.916Z,6.70
2023-04-14T18:25:07.090Z,6.80
2023-04-14T18:30:03.729Z,6.80
2023-04-14T18:32:31.816Z,6.80
2023-04-14T18:34:58.990Z,6.80
2023-04-14T18:37:26.518Z,6.70
2023-04-14T18:39:53.327Z,6.70
2023-04-14T18:42:20.594Z,6.70
2023-04-14T18:44:48.004Z,6.70
2023-04-14T18:47:16.125Z,6.70
2023-04-14T18:49:43.099Z,6.70
2023-04-14T18:52:10.770Z,6.70
2023-04-14T18:54:39.760Z,6.70
2023-04-14T18:57:06.862Z,6.70
2023-04-14T18:59:33.548Z,6.60
2023-04-14T19:02:00.602Z,6.60
2023-04-14T19:04:27.444Z,6.60
2023-04-14T19:06:54.170Z,6.60
2023-04-14T19:09:20.947Z,6.60
2023-04-14T19:11:48.239Z,6.60
2023-04-14T19:14:15.591Z,6.60
2023-04-14T19:16:42.640Z,6.60
2023-04-14T19:19:11.415Z,6.50
2023-04-14T19:21:38.139Z,6.50
2023-04-14T19:24:05.166Z,6.60
2023-04-14T19:26:34.347Z,6.60
2023-04-14T19:29:01.532Z,6.60
2023-04-14T19:31:28.866Z,6.60
2023-04-14T19:33:56.277Z,6.60
2023-04-14T19:36:23.079Z,6.50
2023-04-14T19:38:49.920Z,6.50
2023-04-14T19:41:16.592Z,6.50
2023-04-14T19:43:43.366Z,6.50
2023-04-14T19:46:13.063Z,6.50
2023-04-14T19:48:40.669Z,6.50
2023-04-14T19:51:07.433Z,6.50
2023-04-14T19:53:34.471Z,6.50
2023-04-14T19:56:01.986Z,6.50
2023-04-14T19:58:30.544Z,6.50
2023-04-14T20:00:57.632Z,6.50
2023-04-14T20:03:25.527Z,6.50
2023-04-14T20:05:55.015Z,6.50
2023-04-14T20:08:26.323Z,6.50
2023-04-14T20:10:54.412Z,6.40
2023-04-14T20:13:23.215Z,6.40
2023-04-14T20:15:54.214Z,6.40
2023-04-14T20:18:22.477Z,6.40
2023-04-14T20:20:50.043Z,6.40
2023-04-14T20:23:17.033Z,6.40
2023-04-14T20:25:45.260Z,6.40
2023-04-14T20:28:11.944Z,6.40
2023-04-14T20:30:38.947Z,6.40
2023-04-14T20:33:05.896Z,6.30
2023-04-14T20:35:36.098Z,6.30
2023-04-14T20:38:02.880Z,6.20
2023-04-14T20:40:30.429Z,6.20
2023-04-14T20:42:57.235Z,6.20
2023-04-14T20:45:24.942Z,6.20
2023-04-14T20:47:51.817Z,6.20
2023-04-14T20:50:19.221Z,6.20
2023-04-14T20:52:46.512Z,6.20
2023-04-14T20:55:16.239Z,6.20
2023-04-14T20:57:43.253Z,6.10
2023-04-14T21:00:12.229Z,6.10
2023-04-14T21:02:39.338Z,6.10
2023-04-14T21:05:06.540Z,6.10
2023-04-14T21:07:35.791Z,6.00
2023-04-14T21:10:06.680Z,6.00
2023-04-14T21:12:35.385Z,6.00
2023-04-14T21:15:47.323Z,6.00
2023-04-14T21:17:52.659Z,5.90
2023-04-14T21:20:20.077Z,5.90
2023-04-14T21:22:47.229Z,5.90
2023-04-14T21:25:14.230Z,5.90
2023-04-14T21:27:41.762Z,5.90
2023-04-14T21:30:11.546Z,5.90
2023-04-14T21:32:39.424Z,5.90
2023-04-14T21:35:08.568Z,5.90
2023-04-14T21:37:35.763Z,5.80
2023-04-14T21:40:06.135Z,5.90
2023-04-14T21:42:33.293Z,5.90
2023-04-14T21:45:00.970Z,5.80
2023-04-14T21:47:27.991Z,5.80
2023-04-14T21:49:54.886Z,5.90
2023-04-14T21:52:21.612Z,5.80
2023-04-14T21:54:50.404Z,5.80
2023-04-14T21:57:17.438Z,5.80
2023-04-14T22:00:07.749Z,5.80
2023-04-14T22:02:34.875Z,5.80
2023-04-14T22:05:01.745Z,5.80
2023-04-14T22:07:29.824Z,5.80
2023-04-14T22:09:56.730Z,5.80
2023-04-14T22:12:24.964Z,5.80
2023-04-14T22:14:51.658Z,5.80
2023-04-14T22:17:18.793Z,5.80
2023-04-14T22:19:46.381Z,5.80
2023-04-14T22:22:13.098Z,5.80
2023-04-14T22:24:40.060Z,5.80
2023-04-14T22:27:08.214Z,5.70
2023-04-14T22:29:35.260Z,5.70
2023-04-14T22:32:02.443Z,5.70
2023-04-14T22:34:29.454Z,5.70
2023-04-14T22:36:58.020Z,5.70
2023-04-14T22:39:25.129Z,5.70
2023-04-14T22:41:51.835Z,5.70
2023-04-14T22:44:19.273Z,5.70
2023-04-14T22:46:46.094Z,5.60
2023-04-14T22:49:13.080Z,5.70
2023-04-14T22:51:39.776Z,5.70
2023-04-14T22:54:06.898Z,5.70
2023-04-14T22:56:33.951Z,5.60
2023-04-14T22:59:01.248Z,5.60
2023-04-14T23:01:29.734Z,5.60
2023-04-14T23:03:56.543Z,5.60
2023-04-14T23:06:23.636Z,5.60
2023-04-14T23:08:51.397Z,5.60
2023-04-14T23:11:21.102Z,5.60
2023-04-14T23:13:49.886Z,5.60
2023-04-14T23:16:22.592Z,5.60
2023-04-14T23:18:52.931Z,5.60
2023-04-14T23:21:23.315Z,5.60
2023-04-14T23:23:50.777Z,5.60
2023-04-14T23:26:19.592Z,5.60
2023-04-14T23:28:47.065Z,5.60
2023-04-14T23:31:13.967Z,5.60
2023-04-14T23:33:40.810Z,5.60
2023-04-14T23:36:08.172Z,5.70
2023-04-14T23:38:34.929Z,5.60
2023-04-14T23:41:02.259Z,5.60
2023-04-14T23:43:29.494Z,5.60
2023-04-14T23:45:56.743Z,5.70
2023-04-14T23:48:24.178Z,5.70
2023-04-14T23:51:00.774Z,5.60
2023-04-14T23:53:38.064Z,5.60
2023-04-14T23:56:05.363Z,5.60
2023-04-14T23:58:32.785Z,5.60
